createdAt,value
2019-04-16T00:03:31.761Z,10.87
2019-04-16T00:06:24.149Z,11.43
2019-04-16T00:09:07.212Z,12.27
2019-04-16T00:12:03.065Z,11.50
2019-04-16T00:14:49.738Z,11.53
2019-04-16T00:17:52.259Z,11.97
2019-04-16T00:20:47.866Z,11.40
2019-04-16T00:23:40.810Z,10.50
2019-04-16T00:26:30.186Z,10.23
2019-04-16T00:32:37.928Z,10.83
2019-04-16T00:35:27.599Z,10.60
2019-04-16T00:38:14.260Z,10.03
2019-04-16T00:41:18.514Z,11.17
2019-04-16T00:47:40.241Z,10.20
2019-04-16T00:50:41.989Z,11.00
2019-04-16T00:56:34.781Z,12.83
2019-04-16T00:59:34.915Z,11.33
2019-04-16T01:02:53.510Z,11.73
2019-04-16T01:05:51.443Z,12.87
2019-04-16T01:08:54.749Z,11.20
2019-04-16T01:11:56.831Z,10.50
2019-04-16T01:14:33.417Z,11.47
2019-04-16T01:17:29.799Z,12.27
2019-04-16T01:20:30.296Z,10.90
2019-04-16T01:23:31.236Z,12.47
2019-04-16T01:26:21.034Z,10.93
2019-04-16T01:29:14.345Z,12.00
2019-04-16T01:32:20.306Z,12.20
2019-04-16T01:35:23.643Z,10.80
2019-04-16T01:38:19.266Z,11.63
2019-04-16T01:41:04.120Z,11.90
2019-04-16T01:44:08.507Z,11.57
2019-04-16T01:47:03.789Z,10.33
2019-04-16T01:49:49.917Z,10.57
2019-04-16T01:52:59.395Z,10.93
2019-04-16T01:55:49.102Z,11.00
2019-04-16T01:58:33.557Z,10.70
2019-04-16T02:01:27.959Z,11.17
2019-04-16T02:04:22.300Z,11.00
2019-04-16T02:07:07.510Z,10.93
2019-04-16T02:10:06.422Z,10.93
2019-04-16T02:19:16.739Z,11.03
2019-04-16T02:21:54.412Z,12.37
2019-04-16T02:24:28.668Z,11.83
2019-04-16T02:27:14.037Z,11.83
2019-04-16T02:29:58.604Z,12.03
2019-04-16T02:32:52.123Z,11.97
2019-04-16T02:36:02.656Z,11.73
2019-04-16T02:39:03.666Z,11.80
2019-04-16T02:41:58.458Z,11.67
2019-04-16T02:44:57.688Z,10.87
2019-04-16T02:47:43.356Z,10.50
2019-04-16T02:51:04.922Z,11.27
2019-04-16T02:54:03.699Z,11.03
2019-04-16T02:57:26.303Z,10.83
2019-04-16T02:59:59.665Z,11.50
2019-04-16T03:02:55.530Z,10.97
2019-04-16T03:06:37.751Z,9.93
2019-04-16T03:09:27.028Z,11.80
2019-04-16T03:12:28.457Z,12.20
2019-04-16T03:18:22.517Z,10.27
2019-04-16T03:21:06.970Z,10.23
2019-04-16T03:23:55.517Z,11.13
2019-04-16T03:26:40.542Z,10.40
2019-04-16T03:32:57.166Z,11.17
2019-04-16T03:35:41.826Z,11.67
2019-04-16T03:38:38.706Z,11.20
2019-04-16T03:41:44.954Z,10.40
2019-04-16T03:44:45.281Z,12.13
2019-04-16T03:47:41.387Z,11.47
2019-04-16T03:50:33.925Z,9.93
2019-04-16T03:53:27.053Z,10.60
2019-04-16T03:56:18.521Z,10.80
2019-04-16T03:59:12.551Z,11.63
2019-04-16T04:02:09.846Z,10.90
2019-04-16T04:05:06.481Z,10.80
2019-04-16T04:07:49.252Z,11.00
2019-04-16T04:13:55.999Z,11.60
2019-04-16T04:16:39.398Z,10.90
2019-04-16T04:22:28.752Z,10.57
2019-04-16T04:25:24.036Z,10.27
2019-04-16T04:28:09.290Z,11.30
2019-04-16T04:31:23.778Z,10.63
2019-04-16T04:34:30.604Z,10.77
2019-04-16T04:37:33.220Z,11.13
2019-04-16T04:40:28.591Z,10.40
2019-04-16T04:43:29.338Z,10.07
2019-04-16T04:46:32.663Z,11.33
2019-04-16T04:49:30.094Z,10.53
2019-04-16T04:52:28.665Z,10.90
2019-04-16T04:55:20.406Z,10.43
2019-04-16T04:58:02.808Z,9.90
2019-04-16T05:00:59.231Z,10.30
2019-04-16T05:04:18.958Z,11.27
2019-04-16T05:06:57.242Z,11.03
2019-04-16T05:09:47.467Z,10.50
2019-04-16T05:12:53.716Z,10.23
2019-04-16T05:15:53.031Z,10.80
2019-04-16T05:18:43.309Z,9.50
2019-04-16T05:21:27.749Z,9.73
2019-04-16T05:24:14.658Z,9.43
2019-04-16T05:33:41.718Z,8.53
2019-04-16T05:36:31.628Z,9.00
2019-04-16T05:39:32.281Z,10.50
2019-04-16T05:42:16.971Z,10.13
2019-04-16T05:48:25.559Z,10.23
2019-04-16T05:51:14.528Z,11.37
2019-04-16T05:53:59.502Z,10.30
2019-04-16T05:56:47.952Z,9.83
2019-04-16T05:59:45.676Z,10.37
2019-04-16T06:02:50.514Z,12.43
2019-04-16T06:05:56.303Z,11.27
2019-04-16T06:09:04.483Z,9.73
2019-04-16T06:12:25.082Z,9.97
2019-04-16T06:15:15.457Z,9.57
2019-04-16T06:18:12.319Z,9.73
2019-04-16T06:21:34.811Z,9.73
2019-04-16T06:24:26.660Z,10.53
2019-04-16T06:30:44.813Z,10.23
2019-04-16T06:33:52.675Z,10.33
2019-04-16T06:37:12.783Z,9.20
2019-04-16T06:43:27.490Z,8.67
2019-04-16T06:46:59.963Z,9.00
2019-04-16T06:50:11.220Z,8.63
2019-04-16T06:53:19.879Z,9.93
2019-04-16T06:56:32.436Z,9.20
2019-04-16T06:59:49.062Z,9.60
2019-04-16T07:03:02.274Z,9.30
2019-04-16T07:06:09.233Z,9.17
2019-04-16T07:09:25.776Z,9.50
2019-04-16T07:12:34.875Z,9.40
2019-04-16T07:15:14.382Z,9.97
2019-04-16T07:18:06.656Z,10.07
2019-04-16T07:20:53.518Z,8.67
2019-04-16T07:23:37.967Z,9.57
2019-04-16T07:26:39.499Z,8.77
2019-04-16T07:29:40.862Z,9.93
2019-04-16T07:32:46.982Z,8.73
2019-04-16T07:35:37.033Z,9.10
2019-04-16T07:38:51.384Z,9.53
2019-04-16T07:41:45.095Z,9.20
2019-04-16T07:44:39.391Z,12.10
2019-04-16T07:47:48.284Z,9.73
2019-04-16T07:51:21.940Z,9.40
2019-04-16T07:57:36.595Z,9.60
2019-04-16T08:00:41.311Z,9.63
2019-04-16T08:03:31.996Z,9.00
2019-04-16T08:06:25.665Z,8.50
2019-04-16T08:09:11.941Z,9.77
2019-04-16T08:11:55.733Z,9.43
2019-04-16T08:15:13.291Z,9.43
2019-04-16T08:18:04.251Z,9.17
2019-04-16T08:21:11.875Z,9.20
2019-04-16T08:24:01.144Z,10.00
2019-04-16T08:26:50.823Z,9.37
2019-04-16T08:29:47.708Z,9.50
2019-04-16T08:32:52.068Z,10.17
2019-04-16T08:35:36.808Z,9.27
2019-04-16T08:38:39.483Z,10.40
2019-04-16T08:41:52.349Z,9.77
2019-04-16T08:45:01.512Z,9.77
2019-04-16T08:48:04.033Z,9.77
2019-04-16T08:51:14.118Z,9.70
2019-04-16T08:54:03.992Z,10.20
2019-04-16T08:57:19.335Z,9.77
2019-04-16T09:00:04.782Z,10.13
2019-04-16T09:02:52.028Z,9.17
2019-04-16T09:05:48.797Z,10.10
2019-04-16T09:09:12.439Z,10.97
2019-04-16T09:12:00.126Z,10.20
2019-04-16T09:15:16.587Z,10.67
2019-04-16T09:18:37.204Z,10.13
2019-04-16T09:21:44.366Z,9.53
2019-04-16T09:24:43.264Z,10.80
2019-04-16T09:27:52.178Z,11.80
2019-04-16T09:30:52.932Z,10.33
2019-04-16T09:33:59.024Z,10.70
2019-04-16T09:37:13.058Z,9.57
2019-04-16T09:40:40.886Z,10.50
2019-04-16T09:43:29.323Z,10.27
2019-04-16T09:49:51.078Z,10.03
2019-04-16T09:52:56.555Z,10.17
2019-04-16T09:56:14.874Z,10.80
2019-04-16T10:02:37.624Z,9.97
2019-04-16T10:05:49.987Z,9.87
2019-04-16T10:08:36.283Z,11.40
2019-04-16T10:11:40.325Z,8.47
2019-04-16T10:14:30.066Z,10.83
2019-04-16T10:17:22.735Z,10.63
2019-04-16T10:23:44.792Z,11.10
2019-04-16T10:26:42.390Z,11.10
2019-04-16T10:30:15.784Z,11.67
2019-04-16T10:32:44.160Z,11.53
2019-04-16T10:35:30.134Z,12.40
2019-04-16T10:38:51.752Z,12.30
2019-04-16T10:42:07.772Z,12.30
2019-04-16T10:45:45.991Z,11.93
2019-04-16T10:48:59.278Z,12.87
2019-04-16T10:52:01.127Z,12.47
2019-04-16T11:01:59.184Z,12.57
2019-04-16T11:05:27.647Z,12.73
2019-04-16T11:08:18.373Z,12.37
2019-04-16T11:11:15.056Z,13.57
2019-04-16T11:14:00.544Z,13.47
2019-04-16T11:17:02.804Z,12.27
2019-04-16T11:19:55.887Z,12.77
2019-04-16T11:22:46.882Z,12.83
2019-04-16T11:26:10.989Z,13.80
2019-04-16T11:29:13.265Z,13.43
2019-04-16T11:32:14.982Z,13.07
2019-04-16T11:35:08.713Z,12.50
2019-04-16T11:40:54.276Z,13.47
2019-04-16T11:43:52.844Z,12.27
2019-04-16T11:50:10.279Z,13.63
2019-04-16T11:53:09.239Z,14.07
2019-04-16T11:56:22.381Z,13.67
2019-04-16T11:59:07.894Z,13.83
2019-04-16T12:02:22.035Z,14.47
2019-04-16T12:05:28.139Z,13.70
2019-04-16T12:08:24.611Z,14.00
2019-04-16T12:11:50.128Z,15.87
2019-04-16T12:14:52.359Z,15.17
2019-04-16T12:18:07.458Z,15.37
2019-04-16T12:21:14.332Z,15.13
2019-04-16T12:24:41.659Z,15.83
2019-04-16T12:27:51.145Z,15.33
2019-04-16T12:31:17.163Z,15.47
2019-04-16T12:34:38.249Z,13.90
2019-04-16T12:37:40.969Z,15.80
2019-04-16T12:40:42.615Z,16.20
2019-04-16T12:44:10.231Z,16.50
2019-04-16T12:47:12.533Z,15.97
2019-04-16T12:50:23.566Z,15.53
2019-04-16T12:56:53.452Z,16.43
2019-04-16T13:00:31.811Z,16.00
2019-04-16T13:03:33.334Z,15.73
2019-04-16T13:06:58.445Z,15.63
2019-04-16T13:10:12.230Z,15.77
2019-04-16T13:13:44.448Z,16.47
2019-04-16T13:17:05.050Z,17.73
2019-04-16T13:20:29.499Z,17.17
2019-04-16T13:23:41.786Z,16.73
2019-04-16T13:27:14.546Z,18.27
2019-04-16T13:30:14.279Z,16.27
2019-04-16T13:33:29.390Z,19.30
2019-04-16T13:36:26.496Z,16.77
2019-04-16T13:39:29.825Z,15.70
2019-04-16T13:42:48.809Z,17.17
2019-04-16T13:46:00.705Z,17.53
2019-04-16T13:49:31.359Z,17.87
2019-04-16T13:52:31.245Z,17.40
2019-04-16T13:55:50.539Z,18.60
2019-04-16T13:58:44.504Z,17.67
2019-04-16T14:02:02.027Z,18.33
2019-04-16T14:05:11.273Z,18.57
2019-04-16T14:08:02.619Z,18.37
2019-04-16T14:11:01.123Z,17.43
2019-04-16T14:17:21.861Z,17.80
2019-04-16T14:20:19.281Z,19.63
2019-04-16T14:23:11.629Z,19.43
2019-04-16T14:26:31.834Z,18.23
2019-04-16T14:29:38.760Z,18.63
2019-04-16T14:32:14.949Z,19.77
2019-04-16T14:35:32.264Z,18.70
2019-04-16T14:38:38.949Z,18.73
2019-04-16T14:41:48.920Z,18.40
2019-04-16T14:48:16.459Z,17.67
2019-04-16T14:57:53.683Z,19.00
2019-04-16T15:01:14.705Z,19.03
2019-04-16T15:04:29.075Z,20.40
2019-04-16T15:10:44.345Z,18.97
2019-04-16T15:13:51.791Z,18.27
2019-04-16T15:17:03.695Z,17.07
2019-04-16T15:20:09.365Z,19.47
2019-04-16T15:26:52.784Z,19.60
2019-04-16T15:30:03.920Z,19.17
2019-04-16T15:33:38.766Z,19.97
2019-04-16T15:36:58.808Z,18.30
2019-04-16T15:40:12.467Z,18.47
2019-04-16T15:43:36.606Z,19.70
2019-04-16T15:47:18.789Z,19.13
2019-04-16T15:50:44.464Z,19.60
2019-04-16T15:53:42.316Z,19.73
2019-04-16T15:57:07.993Z,20.37
2019-04-16T16:00:21.761Z,20.50
2019-04-16T16:07:14.240Z,20.03
2019-04-16T16:10:24.211Z,19.73
2019-04-16T16:13:35.275Z,20.33
2019-04-16T16:16:41.888Z,20.50
2019-04-16T16:19:24.242Z,19.23
2019-04-16T16:22:22.727Z,20.50
2019-04-16T16:25:20.191Z,19.00
2019-04-16T16:28:22.808Z,20.37
2019-04-16T16:31:17.897Z,19.63
2019-04-16T16:34:40.811Z,19.83
2019-04-16T16:37:23.946Z,19.60
2019-04-16T16:40:14.755Z,20.27
2019-04-16T16:43:26.302Z,19.93
2019-04-16T16:47:01.466Z,20.60
2019-04-16T16:49:50.542Z,21.53
2019-04-16T16:56:28.300Z,19.17
2019-04-16T16:59:47.929Z,19.83
2019-04-16T17:03:14.973Z,19.57
2019-04-16T17:09:11.406Z,20.57
2019-04-16T17:12:01.378Z,20.20
2019-04-16T17:15:03.977Z,20.33
2019-04-16T17:21:26.122Z,20.77
2019-04-16T17:24:17.827Z,20.17
2019-04-16T17:27:20.840Z,19.93
2019-04-16T17:30:22.175Z,18.67
2019-04-16T17:33:15.192Z,18.93
2019-04-16T17:36:20.525Z,19.63
2019-04-16T17:38:53.899Z,19.07
2019-04-16T17:41:47.217Z,19.23
2019-04-16T17:44:46.220Z,19.93
2019-04-16T17:47:55.524Z,19.63
2019-04-16T17:50:51.035Z,18.80
2019-04-16T17:53:53.229Z,18.60
2019-04-16T17:56:58.710Z,20.37
2019-04-16T17:59:44.311Z,18.77
2019-04-16T18:03:07.161Z,18.83
2019-04-16T18:09:42.755Z,19.37
2019-04-16T18:13:08.007Z,19.07
2019-04-16T18:16:09.312Z,19.50
2019-04-16T18:19:27.540Z,18.60
2019-04-16T18:22:45.038Z,20.73
2019-04-16T18:25:56.822Z,19.63
2019-04-16T18:28:41.607Z,18.67
2019-04-16T18:35:01.604Z,18.60
2019-04-16T18:38:24.341Z,18.97
2019-04-16T18:41:32.916Z,20.10
2019-04-16T18:44:56.168Z,18.60
2019-04-16T18:51:02.009Z,18.50
2019-04-16T18:56:42.850Z,18.43
2019-04-16T18:59:51.724Z,18.60
2019-04-16T19:03:03.897Z,18.87
2019-04-16T19:05:50.041Z,18.90
2019-04-16T19:08:42.053Z,19.53
2019-04-16T19:12:06.688Z,19.90
2019-04-16T19:15:18.014Z,18.80
2019-04-16T19:18:19.053Z,20.87
2019-04-16T19:20:57.419Z,19.87
2019-04-16T19:24:17.080Z,19.83
2019-04-16T19:27:22.070Z,19.50
2019-04-16T19:30:16.002Z,19.57
2019-04-16T19:33:08.707Z,19.97
2019-04-16T19:39:20.416Z,19.43
2019-04-16T19:42:03.362Z,19.43
2019-04-16T19:45:12.026Z,19.03
2019-04-16T19:48:11.343Z,19.07
2019-04-16T19:50:50.575Z,19.10
2019-04-16T19:53:44.596Z,17.33
2019-04-16T19:56:28.015Z,19.23
2019-04-16T19:59:55.502Z,17.63
2019-04-16T20:02:40.737Z,18.47
2019-04-16T20:05:36.995Z,19.40
2019-04-16T20:08:39.851Z,18.87
2019-04-16T20:11:26.238Z,18.80
2019-04-16T20:14:35.321Z,18.17
2019-04-16T20:20:38.052Z,18.17
2019-04-16T20:26:20.947Z,20.10
2019-04-16T20:29:09.077Z,19.30
2019-04-16T20:32:09.815Z,19.70
2019-04-16T20:35:09.334Z,19.50
2019-04-16T20:38:09.621Z,21.17
2019-04-16T20:41:04.301Z,18.57
2019-04-16T20:43:50.081Z,18.53
2019-04-16T20:47:08.584Z,19.07
2019-04-16T20:50:45.541Z,18.10
2019-04-16T20:53:59.767Z,19.70
2019-04-16T20:57:08.767Z,18.80
2019-04-16T21:00:29.230Z,18.87
2019-04-16T21:03:30.887Z,18.73
2019-04-16T21:06:41.249Z,18.60
2019-04-16T21:09:26.792Z,19.70
2019-04-16T21:12:37.073Z,19.83
2019-04-16T21:15:27.356Z,19.90
2019-04-16T21:18:30.856Z,19.10
2019-04-16T21:21:24.318Z,20.03
2019-04-16T21:24:20.862Z,18.40
2019-04-16T21:27:13.272Z,19.43
2019-04-16T21:30:16.042Z,19.47
2019-04-16T21:33:07.454Z,18.97
2019-04-16T21:36:06.167Z,18.93
2019-04-16T21:39:20.145Z,18.67
2019-04-16T21:42:31.617Z,18.33
2019-04-16T21:45:29.077Z,18.67
2019-04-16T21:48:23.869Z,19.10
2019-04-16T21:51:25.623Z,20.03
2019-04-16T21:54:11.037Z,21.43
2019-04-16T21:57:28.716Z,18.90
2019-04-16T22:00:52.483Z,20.80
2019-04-16T22:03:51.758Z,20.67
2019-04-16T22:06:38.066Z,19.90
2019-04-16T22:09:21.271Z,19.37
2019-04-16T22:12:47.592Z,20.80
2019-04-16T22:15:29.782Z,18.47
2019-04-16T22:18:15.853Z,19.13
2019-04-16T22:20:53.349Z,19.47
2019-04-16T22:23:57.164Z,18.60
2019-04-16T22:26:49.487Z,18.80
2019-04-16T22:29:49.160Z,17.87
2019-04-16T22:36:32.728Z,17.57
2019-04-16T22:39:40.531Z,17.47
2019-04-16T22:43:12.246Z,17.10
2019-04-16T22:46:22.162Z,16.73
2019-04-16T22:49:47.337Z,18.30
2019-04-16T22:52:34.186Z,17.37
2019-04-16T22:55:56.269Z,18.40
2019-04-16T22:58:53.040Z,17.53
2019-04-16T23:01:44.864Z,17.40
2019-04-16T23:04:38.203Z,18.07
2019-04-16T23:07:39.678Z,17.27
2019-04-16T23:10:21.175Z,18.23
2019-04-16T23:13:15.800Z,17.67
2019-04-16T23:16:02.226Z,17.60
2019-04-16T23:18:49.296Z,17.43
2019-04-16T23:21:42.565Z,16.17
2019-04-16T23:24:26.384Z,16.47
2019-04-16T23:27:28.581Z,16.97
2019-04-16T23:30:15.754Z,17.80
2019-04-16T23:33:08.334Z,16.73
2019-04-16T23:35:53.574Z,17.30
2019-04-16T23:38:43.008Z,15.83
2019-04-16T23:41:57.924Z,16.17
2019-04-16T23:45:20.272Z,15.13
2019-04-16T23:54:45.469Z,16.13
2019-04-16T23:58:07.098Z,15.80
